createdAt,value
2019-05-26T00:00:23.877Z,17.62
2019-05-26T00:02:52.375Z,20.65
2019-05-26T00:05:20.826Z,18.70
2019-05-26T00:07:49.302Z,19.60
2019-05-26T00:10:17.943Z,18.32
2019-05-26T00:12:46.788Z,17.20
2019-05-26T00:15:16.182Z,17.67
2019-05-26T00:17:44.673Z,18.20
2019-05-26T00:20:14.362Z,18.12
2019-05-26T00:22:42.825Z,17.85
2019-05-26T00:25:12.097Z,21.75
2019-05-26T00:27:40.554Z,16.25
2019-05-26T00:30:09.652Z,18.40
2019-05-26T00:32:38.380Z,17.20
2019-05-26T00:35:08.911Z,20.85
2019-05-26T00:37:48.268Z,16.85
2019-05-26T00:40:09.881Z,17.95
2019-05-26T00:42:38.505Z,20.20
2019-05-26T00:45:08.708Z,18.27
2019-05-26T00:47:37.340Z,18.32
2019-05-26T00:50:07.538Z,19.05
2019-05-26T00:52:36.179Z,18.98
2019-05-26T00:55:09.154Z,17.37
2019-05-26T00:57:37.935Z,17.12
2019-05-26T01:00:10.192Z,20.35
2019-05-26T01:02:39.031Z,18.62
2019-05-26T01:05:08.928Z,18.85
2019-05-26T01:07:37.994Z,17.42
2019-05-26T01:10:07.945Z,17.98
2019-05-26T01:12:36.468Z,18.10
2019-05-26T01:15:07.477Z,17.07
2019-05-26T01:17:35.970Z,17.27
2019-05-26T01:20:05.675Z,20.77
2019-05-26T01:22:34.131Z,17.57
2019-05-26T01:25:02.645Z,19.85
2019-05-26T01:27:31.101Z,17.92
2019-05-26T01:29:59.563Z,18.25
2019-05-26T01:32:28.058Z,18.60
2019-05-26T01:34:56.533Z,20.90
2019-05-26T01:37:25.131Z,19.12
2019-05-26T01:39:53.782Z,17.57
2019-05-26T01:42:22.333Z,19.32
2019-05-26T01:44:50.793Z,19.12
2019-05-26T01:47:19.287Z,20.00
2019-05-26T01:49:47.743Z,19.85
2019-05-26T01:52:16.308Z,21.10
2019-05-26T01:54:44.802Z,19.55
2019-05-26T01:57:13.338Z,18.42
2019-05-26T01:59:41.798Z,21.23
2019-05-26T02:02:10.305Z,22.10
2019-05-26T02:04:38.761Z,21.50
2019-05-26T02:07:07.244Z,18.98
2019-05-26T02:09:35.749Z,20.20
2019-05-26T02:12:04.235Z,21.57
2019-05-26T02:14:32.751Z,21.17
2019-05-26T02:17:01.264Z,18.67
2019-05-26T02:19:29.779Z,22.05
2019-05-26T02:21:58.239Z,22.50
2019-05-26T02:24:26.794Z,20.95
2019-05-26T02:26:55.265Z,24.10
2019-05-26T02:29:23.729Z,21.75
2019-05-26T02:31:52.239Z,22.75
2019-05-26T02:34:20.776Z,23.70
2019-05-26T02:36:49.315Z,24.37
2019-05-26T02:39:17.799Z,24.37
2019-05-26T02:41:46.273Z,23.02
2019-05-26T02:44:14.803Z,24.15
2019-05-26T02:46:43.306Z,24.57
2019-05-26T02:49:11.774Z,23.40
2019-05-26T02:51:40.314Z,24.12
2019-05-26T02:54:08.949Z,23.83
2019-05-26T02:56:37.539Z,23.80
2019-05-26T02:59:06.090Z,23.90
2019-05-26T03:01:35.184Z,24.23
2019-05-26T03:04:03.808Z,23.50
2019-05-26T03:06:33.797Z,23.45
2019-05-26T03:09:20.959Z,25.08
2019-05-26T03:11:35.456Z,23.67
2019-05-26T03:14:04.844Z,24.98
2019-05-26T03:16:36.482Z,26.23
2019-05-26T03:19:17.297Z,23.07
2019-05-26T03:21:49.177Z,26.02
2019-05-26T03:24:23.249Z,23.83
2019-05-26T03:26:51.705Z,25.88
2019-05-26T03:29:20.208Z,24.87
2019-05-26T03:31:48.748Z,26.33
2019-05-26T03:34:17.297Z,26.05
2019-05-26T03:36:45.992Z,27.13
2019-05-26T03:39:14.513Z,24.67
2019-05-26T03:41:43.004Z,24.82
2019-05-26T03:44:11.496Z,25.77
2019-05-26T03:46:39.958Z,26.48
2019-05-26T03:49:08.422Z,25.12
2019-05-26T03:51:36.994Z,27.85
2019-05-26T03:54:05.589Z,27.75
2019-05-26T03:56:34.055Z,26.55
2019-05-26T03:59:02.779Z,27.13
2019-05-26T04:01:31.243Z,28.95
2019-05-26T04:03:59.777Z,25.12
2019-05-26T04:06:28.271Z,26.10
2019-05-26T04:08:56.745Z,26.75
2019-05-26T04:11:44.654Z,29.92
2019-05-26T04:14:13.193Z,26.77
2019-05-26T04:16:41.647Z,27.00
2019-05-26T04:19:10.236Z,30.27
2019-05-26T04:21:38.698Z,26.48
2019-05-26T04:24:07.214Z,25.82
2019-05-26T04:26:35.704Z,29.10
2019-05-26T04:29:04.243Z,29.10
2019-05-26T04:31:32.777Z,26.50
2019-05-26T04:34:01.353Z,26.57
2019-05-26T04:36:29.835Z,26.73
2019-05-26T04:38:58.361Z,29.85
2019-05-26T04:41:26.865Z,24.70
2019-05-26T04:43:55.387Z,26.07
2019-05-26T04:46:23.844Z,29.37
2019-05-26T04:48:52.342Z,25.77
2019-05-26T04:51:20.796Z,26.48
2019-05-26T04:53:49.259Z,24.80
2019-05-26T04:56:37.136Z,26.15
2019-05-26T04:59:05.644Z,27.10
2019-05-26T05:01:34.115Z,25.43
2019-05-26T05:04:02.788Z,25.43
2019-05-26T05:06:31.258Z,29.32
2019-05-26T05:08:59.719Z,25.05
2019-05-26T05:11:28.216Z,27.27
2019-05-26T05:13:56.678Z,24.23
2019-05-26T05:16:25.157Z,24.82
2019-05-26T05:18:53.717Z,24.27
2019-05-26T05:21:34.536Z,23.90
2019-05-26T05:24:03.097Z,26.62
2019-05-26T05:26:31.557Z,28.50
2019-05-26T05:29:00.025Z,25.40
2019-05-26T05:31:28.521Z,24.43
2019-05-26T05:33:56.990Z,24.95
2019-05-26T05:36:25.831Z,23.27
2019-05-26T05:38:54.340Z,23.98
2019-05-26T05:41:22.810Z,25.65
2019-05-26T05:43:51.281Z,23.20
2019-05-26T05:46:19.772Z,20.88
2019-05-26T05:48:48.235Z,25.02
2019-05-26T05:51:16.709Z,28.87
2019-05-26T05:53:45.271Z,29.90
2019-05-26T05:56:14.201Z,27.02
2019-05-26T05:58:42.681Z,27.37
2019-05-26T06:01:11.484Z,23.92
2019-05-26T06:03:39.950Z,22.45
2019-05-26T06:06:08.421Z,22.93
2019-05-26T06:08:36.912Z,22.35
2019-05-26T06:11:16.110Z,18.40
2019-05-26T06:13:35.633Z,21.95
2019-05-26T06:16:04.191Z,21.15
2019-05-26T06:18:32.653Z,20.52
2019-05-26T06:21:01.102Z,23.77
2019-05-26T06:23:29.609Z,17.12
2019-05-26T06:25:58.149Z,17.42
2019-05-26T06:28:26.606Z,19.23
2019-05-26T06:30:55.109Z,15.55
2019-05-26T06:33:23.623Z,16.20
2019-05-26T06:35:52.116Z,15.80
2019-05-26T06:38:20.648Z,19.25
2019-05-26T06:40:49.108Z,18.52
2019-05-26T06:43:17.739Z,19.15
2019-05-26T06:45:46.244Z,18.23
2019-05-26T06:48:14.720Z,17.73
2019-05-26T06:50:43.278Z,18.35
2019-05-26T06:53:11.843Z,17.27
2019-05-26T06:55:40.302Z,16.32
2019-05-26T06:58:08.757Z,19.60
2019-05-26T07:00:37.332Z,17.70
2019-05-26T07:03:05.794Z,15.10
2019-05-26T07:05:34.240Z,17.60
2019-05-26T07:08:02.746Z,15.13
2019-05-26T07:10:31.200Z,17.90
2019-05-26T07:12:59.711Z,16.40
2019-05-26T07:15:28.351Z,16.67
2019-05-26T07:17:56.819Z,18.87
2019-05-26T07:20:25.306Z,16.27
2019-05-26T07:22:53.816Z,18.17
2019-05-26T07:25:22.289Z,16.75
2019-05-26T07:27:50.825Z,16.20
2019-05-26T07:30:23.344Z,18.80
2019-05-26T07:32:49.940Z,17.67
2019-05-26T07:35:18.394Z,17.50
2019-05-26T07:37:46.903Z,17.55
2019-05-26T07:40:17.080Z,17.52
2019-05-26T07:42:45.543Z,17.40
2019-05-26T07:45:15.593Z,17.42
2019-05-26T07:47:44.048Z,18.50
2019-05-26T07:50:12.652Z,15.65
2019-05-26T07:52:41.153Z,16.93
2019-05-26T07:55:09.612Z,20.20
2019-05-26T07:57:39.108Z,17.25
2019-05-26T08:00:08.708Z,21.02
2019-05-26T08:02:37.168Z,17.95
2019-05-26T08:05:07.967Z,21.60
2019-05-26T08:07:36.637Z,18.87
2019-05-26T08:10:09.616Z,18.57
2019-05-26T08:12:38.087Z,18.48
2019-05-26T08:15:08.128Z,17.10
2019-05-26T08:17:36.755Z,16.37
2019-05-26T08:20:10.470Z,20.82
2019-05-26T08:22:39.804Z,19.70
2019-05-26T08:25:08.712Z,18.25
2019-05-26T08:27:37.173Z,18.40
2019-05-26T08:30:07.017Z,17.87
2019-05-26T08:32:35.552Z,17.82
2019-05-26T08:35:08.453Z,20.08
2019-05-26T08:37:37.029Z,21.15
2019-05-26T08:40:19.630Z,16.97
2019-05-26T08:42:49.561Z,22.20
2019-05-26T08:45:21.465Z,19.67
2019-05-26T08:47:48.958Z,17.70
2019-05-26T08:50:17.936Z,23.00
2019-05-26T08:52:46.569Z,18.70
2019-05-26T08:55:15.875Z,19.50
2019-05-26T08:57:44.388Z,20.97
2019-05-26T09:00:13.583Z,18.65
2019-05-26T09:02:42.092Z,19.10
2019-05-26T09:05:10.989Z,22.37
2019-05-26T09:07:39.623Z,20.17
2019-05-26T09:10:09.164Z,20.55
2019-05-26T09:12:37.743Z,18.00
2019-05-26T09:15:06.837Z,19.42
2019-05-26T09:17:35.296Z,19.42
2019-05-26T09:20:06.251Z,19.60
2019-05-26T09:22:34.775Z,19.27
2019-05-26T09:25:04.377Z,19.23
2019-05-26T09:27:32.948Z,19.15
2019-05-26T09:30:01.410Z,19.30
2019-05-26T09:32:29.958Z,18.50
2019-05-26T09:34:58.456Z,18.32
2019-05-26T09:37:26.926Z,17.57
2019-05-26T09:39:55.392Z,18.45
2019-05-26T09:42:23.970Z,16.95
2019-05-26T09:44:52.424Z,16.87
2019-05-26T09:47:20.898Z,13.45
2019-05-26T09:49:49.418Z,14.68
2019-05-26T09:52:17.944Z,13.65
2019-05-26T09:54:46.402Z,12.98
2019-05-26T09:57:14.989Z,14.90
2019-05-26T09:59:43.482Z,15.03
2019-05-26T10:02:12.122Z,16.55
2019-05-26T10:04:40.754Z,14.85
2019-05-26T10:07:13.310Z,16.93
2019-05-26T10:09:39.592Z,16.15
2019-05-26T10:12:08.091Z,13.18
2019-05-26T10:14:36.552Z,13.98
2019-05-26T10:17:05.347Z,12.60
2019-05-26T10:19:33.838Z,15.50
2019-05-26T10:22:02.378Z,19.20
2019-05-26T10:24:30.903Z,16.05
2019-05-26T10:26:59.411Z,15.20
2019-05-26T10:29:27.943Z,13.78
2019-05-26T10:31:56.538Z,13.60
2019-05-26T10:34:25.042Z,13.78
2019-05-26T10:36:53.496Z,13.40
2019-05-26T10:39:21.947Z,12.93
2019-05-26T10:41:50.547Z,13.93
2019-05-26T10:44:19.009Z,12.55
2019-05-26T10:46:47.473Z,13.08
2019-05-26T10:49:15.978Z,11.08
2019-05-26T10:51:44.432Z,12.95
2019-05-26T10:54:12.960Z,16.95
2019-05-26T10:56:41.468Z,12.35
2019-05-26T10:59:09.932Z,14.58
2019-05-26T11:01:38.375Z,12.40
2019-05-26T11:04:06.954Z,17.45
2019-05-26T11:06:35.414Z,16.15
2019-05-26T11:09:06.087Z,12.75
2019-05-26T11:11:34.652Z,11.83
2019-05-26T11:14:03.620Z,11.48
2019-05-26T11:16:32.710Z,13.35
2019-05-26T11:19:01.253Z,12.45
2019-05-26T11:21:29.782Z,9.55
2019-05-26T11:23:58.237Z,11.20
2019-05-26T11:26:26.779Z,11.18
2019-05-26T11:28:55.244Z,10.65
2019-05-26T11:31:23.724Z,10.58
2019-05-26T11:33:52.298Z,14.23
2019-05-26T11:36:20.865Z,12.13
2019-05-26T11:38:49.321Z,10.30
2019-05-26T11:41:17.817Z,10.90
2019-05-26T11:43:46.275Z,10.50
2019-05-26T11:46:16.689Z,12.40
2019-05-26T11:48:44.940Z,12.28
2019-05-26T11:51:13.390Z,13.60
2019-05-26T11:53:41.836Z,9.68
2019-05-26T11:56:10.339Z,11.78
2019-05-26T11:58:38.787Z,9.13
2019-05-26T12:01:07.319Z,9.40
2019-05-26T12:03:35.847Z,10.40
2019-05-26T12:06:04.464Z,8.75
2019-05-26T12:08:32.927Z,8.23
2019-05-26T12:11:01.404Z,9.20
2019-05-26T12:13:29.865Z,12.58
2019-05-26T12:15:58.321Z,8.40
2019-05-26T12:18:26.831Z,8.05
2019-05-26T12:20:55.277Z,6.75
2019-05-26T12:23:23.739Z,9.95
2019-05-26T12:25:52.231Z,10.98
2019-05-26T12:28:20.694Z,10.05
2019-05-26T12:30:49.139Z,6.85
2019-05-26T12:33:17.641Z,8.58
2019-05-26T12:35:46.366Z,8.73
2019-05-26T12:38:15.282Z,8.08
2019-05-26T12:40:43.914Z,7.67
2019-05-26T12:43:12.374Z,6.55
2019-05-26T12:45:40.965Z,7.33
2019-05-26T12:48:09.540Z,7.10
2019-05-26T12:50:38.229Z,6.20
2019-05-26T12:53:07.926Z,5.55
2019-05-26T12:55:36.418Z,5.70
2019-05-26T12:58:05.615Z,6.42
2019-05-26T13:00:48.074Z,6.22
2019-05-26T13:03:07.419Z,4.70
2019-05-26T13:05:35.864Z,3.92
2019-05-26T13:08:04.670Z,3.27
2019-05-26T13:10:33.256Z,4.60
2019-05-26T13:13:02.370Z,5.47
2019-05-26T13:15:30.824Z,3.77
2019-05-26T13:17:59.318Z,3.52
2019-05-26T13:20:27.927Z,5.62
2019-05-26T13:22:56.448Z,6.50
2019-05-26T13:25:25.155Z,5.12
2019-05-26T13:27:53.609Z,4.75
2019-05-26T13:30:24.652Z,4.75
2019-05-26T13:32:53.229Z,5.78
2019-05-26T13:35:21.867Z,4.45
2019-05-26T13:37:50.396Z,5.40
2019-05-26T13:40:19.216Z,4.95
2019-05-26T13:42:47.670Z,5.70
2019-05-26T13:45:22.768Z,5.95
2019-05-26T13:47:47.384Z,5.62
2019-05-26T13:50:16.939Z,4.75
2019-05-26T13:52:45.592Z,6.85
2019-05-26T13:55:14.787Z,5.55
2019-05-26T13:57:43.249Z,8.68
2019-05-26T14:00:14.462Z,6.65
2019-05-26T14:02:43.019Z,6.12
2019-05-26T14:05:11.800Z,6.35
2019-05-26T14:07:40.269Z,4.97
2019-05-26T14:10:09.204Z,6.90
2019-05-26T14:12:37.672Z,5.90
2019-05-26T14:15:10.079Z,5.70
2019-05-26T14:17:39.720Z,7.17
2019-05-26T14:20:09.080Z,5.35
2019-05-26T14:22:37.606Z,6.95
2019-05-26T14:25:07.651Z,5.65
2019-05-26T14:27:36.110Z,5.00
2019-05-26T14:30:06.903Z,5.37
2019-05-26T14:32:35.413Z,5.22
2019-05-26T14:35:05.514Z,5.67
2019-05-26T14:37:33.964Z,8.68
2019-05-26T14:40:02.470Z,5.15
2019-05-26T14:42:30.940Z,5.53
2019-05-26T14:45:03.011Z,7.35
2019-05-26T14:47:29.602Z,6.33
2019-05-26T14:49:58.920Z,6.55
2019-05-26T14:52:27.384Z,6.33
2019-05-26T14:54:55.872Z,8.03
2019-05-26T14:57:24.353Z,5.90
2019-05-26T14:59:52.831Z,8.95
2019-05-26T15:02:21.480Z,8.68
2019-05-26T15:04:49.953Z,7.78
2019-05-26T15:07:18.406Z,6.22
2019-05-26T15:09:46.984Z,8.70
2019-05-26T15:12:15.546Z,6.37
2019-05-26T15:14:43.990Z,7.53
2019-05-26T15:17:12.487Z,7.05
2019-05-26T15:19:40.940Z,8.95
2019-05-26T15:22:09.400Z,9.90
2019-05-26T15:24:37.899Z,7.45
2019-05-26T15:27:06.432Z,7.15
2019-05-26T15:29:34.951Z,6.05
2019-05-26T15:32:03.688Z,6.00
2019-05-26T15:34:32.179Z,6.70
2019-05-26T15:37:00.647Z,5.12
2019-05-26T15:39:29.149Z,5.25
2019-05-26T15:41:57.605Z,5.85
2019-05-26T15:44:26.054Z,6.30
2019-05-26T15:46:54.545Z,8.48
2019-05-26T15:49:22.996Z,6.83
2019-05-26T15:51:51.466Z,6.15
2019-05-26T15:54:20.036Z,6.42
2019-05-26T15:56:48.564Z,5.95
2019-05-26T15:59:17.016Z,5.12
2019-05-26T16:01:47.302Z,4.87
2019-05-26T16:04:15.833Z,5.67
2019-05-26T16:06:44.294Z,5.75
2019-05-26T16:09:12.854Z,6.20
2019-05-26T16:11:43.635Z,9.28
2019-05-26T16:14:11.623Z,8.25
2019-05-26T16:16:41.759Z,10.00
2019-05-26T16:19:10.404Z,6.08
2019-05-26T16:21:38.861Z,5.58
2019-05-26T16:24:07.517Z,5.97
2019-05-26T16:26:36.036Z,5.87
2019-05-26T16:29:05.131Z,8.40
2019-05-26T16:31:33.699Z,11.43
2019-05-26T16:34:02.154Z,6.47
2019-05-26T16:36:30.609Z,10.03
2019-05-26T16:38:59.150Z,8.48
2019-05-26T16:41:27.630Z,6.20
2019-05-26T16:43:56.166Z,7.35
2019-05-26T16:46:24.800Z,7.80
2019-05-26T16:48:54.736Z,6.95
2019-05-26T16:51:23.555Z,6.20
2019-05-26T16:53:52.044Z,4.17
2019-05-26T16:56:20.502Z,5.70
2019-05-26T16:58:48.968Z,4.33
2019-05-26T17:01:17.473Z,5.55
2019-05-26T17:03:45.922Z,3.75
2019-05-26T17:06:14.539Z,4.50
2019-05-26T17:08:43.032Z,4.15
2019-05-26T17:11:11.492Z,4.15
2019-05-26T17:13:39.953Z,4.33
2019-05-26T17:16:08.703Z,6.62
2019-05-26T17:18:37.146Z,4.33
2019-05-26T17:21:05.676Z,5.70
2019-05-26T17:23:34.184Z,3.12
2019-05-26T17:26:02.812Z,5.95
2019-05-26T17:28:31.275Z,6.28
2019-05-26T17:30:59.915Z,4.55
2019-05-26T17:33:28.373Z,5.28
2019-05-26T17:35:56.823Z,4.33
2019-05-26T17:38:25.592Z,4.10
2019-05-26T17:40:54.050Z,4.45
2019-05-26T17:43:22.525Z,4.10
2019-05-26T17:45:51.086Z,7.47
2019-05-26T17:48:19.551Z,5.25
2019-05-26T17:50:48.014Z,4.28
2019-05-26T17:53:16.676Z,4.45
2019-05-26T17:55:45.137Z,10.60
2019-05-26T17:58:13.587Z,4.65
2019-05-26T18:00:42.162Z,8.60
2019-05-26T18:03:10.687Z,5.50
2019-05-26T18:05:39.157Z,5.78
2019-05-26T18:08:07.665Z,4.22
2019-05-26T18:10:36.186Z,5.00
2019-05-26T18:13:04.710Z,4.78
2019-05-26T18:15:33.197Z,3.72
2019-05-26T18:18:01.645Z,4.47
2019-05-26T18:20:30.121Z,5.00
2019-05-26T18:22:58.613Z,7.00
2019-05-26T18:25:27.215Z,5.75
2019-05-26T18:27:55.667Z,6.50
2019-05-26T18:30:24.296Z,3.25
2019-05-26T18:32:52.777Z,4.00
2019-05-26T18:35:21.238Z,3.87
2019-05-26T18:37:52.265Z,4.95
2019-05-26T18:40:20.542Z,4.30
2019-05-26T18:42:49.072Z,3.72
2019-05-26T18:45:17.707Z,5.10
2019-05-26T18:48:01.315Z,3.33
2019-05-26T18:50:16.448Z,3.30
2019-05-26T18:52:44.936Z,3.15
2019-05-26T18:55:13.813Z,3.12
2019-05-26T18:57:42.333Z,3.17
2019-05-26T19:00:11.636Z,3.95
2019-05-26T19:02:40.104Z,3.42
2019-05-26T19:05:08.913Z,2.77
2019-05-26T19:07:37.601Z,2.58
2019-05-26T19:10:06.633Z,3.25
2019-05-26T19:12:35.148Z,2.12
2019-05-26T19:15:04.873Z,2.47
2019-05-26T19:17:33.329Z,4.22
2019-05-26T19:20:14.861Z,2.27
2019-05-26T19:22:32.075Z,2.80
2019-05-26T19:25:00.543Z,3.35
2019-05-26T19:27:29.073Z,3.58
2019-05-26T19:29:57.571Z,3.47
2019-05-26T19:32:26.026Z,2.92
2019-05-26T19:34:54.482Z,2.77
2019-05-26T19:37:22.977Z,3.25
2019-05-26T19:39:51.434Z,3.47
2019-05-26T19:42:19.959Z,2.58
2019-05-26T19:44:48.465Z,2.58
2019-05-26T19:47:16.945Z,2.75
2019-05-26T19:49:45.410Z,5.62
2019-05-26T19:52:13.890Z,3.55
2019-05-26T19:54:42.422Z,2.08
2019-05-26T19:57:10.970Z,2.17
2019-05-26T19:59:39.524Z,3.30
2019-05-26T20:02:17.899Z,1.77
2019-05-26T20:04:38.672Z,1.92
2019-05-26T20:07:07.455Z,4.67
2019-05-26T20:09:35.914Z,2.80
2019-05-26T20:12:05.103Z,3.00
2019-05-26T20:14:33.603Z,2.30
2019-05-26T20:17:02.208Z,2.75
2019-05-26T20:19:30.661Z,2.40
2019-05-26T20:21:59.166Z,1.67
2019-05-26T20:24:27.697Z,3.65
2019-05-26T20:26:56.255Z,2.67
2019-05-26T20:29:24.769Z,2.65
2019-05-26T20:31:53.241Z,2.90
2019-05-26T20:34:21.693Z,3.02
2019-05-26T20:36:50.188Z,4.17
2019-05-26T20:39:18.632Z,3.10
2019-05-26T20:41:47.103Z,4.15
2019-05-26T20:44:15.600Z,5.47
2019-05-26T20:46:44.084Z,3.50
2019-05-26T20:49:12.589Z,4.10
2019-05-26T20:51:41.154Z,2.77
2019-05-26T20:54:09.680Z,5.35
2019-05-26T20:56:39.246Z,5.87
2019-05-26T20:59:07.974Z,6.22
2019-05-26T21:01:36.797Z,3.95
2019-05-26T21:04:05.253Z,4.10
2019-05-26T21:06:33.830Z,4.10
2019-05-26T21:09:02.327Z,4.15
2019-05-26T21:11:30.850Z,3.92
2019-05-26T21:13:59.411Z,5.53
2019-05-26T21:16:27.946Z,4.78
2019-05-26T21:18:56.426Z,4.08
2019-05-26T21:21:24.952Z,4.70
2019-05-26T21:23:53.471Z,5.12
2019-05-26T21:26:21.924Z,4.72
2019-05-26T21:28:50.558Z,5.22
2019-05-26T21:31:19.147Z,4.65
2019-05-26T21:33:47.605Z,4.80
2019-05-26T21:36:16.110Z,4.17
2019-05-26T21:38:44.590Z,4.22
2019-05-26T21:41:13.036Z,5.28
2019-05-26T21:43:41.555Z,4.37
2019-05-26T21:46:10.070Z,6.60
2019-05-26T21:48:38.520Z,4.15
2019-05-26T21:51:07.035Z,6.22
2019-05-26T21:53:35.557Z,6.47
2019-05-26T21:56:04.097Z,5.28
2019-05-26T21:58:32.587Z,5.15
2019-05-26T22:01:01.110Z,6.75
2019-05-26T22:03:29.638Z,6.22
2019-05-26T22:05:58.129Z,7.03
2019-05-26T22:08:26.586Z,5.80
2019-05-26T22:10:55.081Z,7.85
2019-05-26T22:13:23.608Z,6.87
2019-05-26T22:15:52.062Z,6.30
2019-05-26T22:18:20.520Z,6.03
2019-05-26T22:20:49.006Z,6.45
2019-05-26T22:23:17.456Z,7.20
2019-05-26T22:25:45.927Z,6.50
2019-05-26T22:28:14.431Z,6.45
2019-05-26T22:30:43.414Z,5.97
2019-05-26T22:33:11.877Z,7.78
2019-05-26T22:35:40.435Z,6.87
2019-05-26T22:38:08.966Z,8.05
2019-05-26T22:40:37.580Z,7.05
2019-05-26T22:43:06.242Z,6.67
2019-05-26T22:45:34.766Z,7.47
2019-05-26T22:48:03.232Z,6.37
2019-05-26T22:50:31.725Z,7.83
2019-05-26T22:53:00.167Z,8.05
2019-05-26T22:55:28.623Z,7.12
2019-05-26T22:57:57.385Z,7.53
2019-05-26T23:00:26.073Z,6.78
2019-05-26T23:02:54.589Z,7.45
2019-05-26T23:05:23.161Z,9.75
2019-05-26T23:07:51.610Z,7.22
2019-05-26T23:10:20.054Z,8.53
2019-05-26T23:12:48.552Z,9.08
2019-05-26T23:15:17.257Z,7.22
2019-05-26T23:17:45.784Z,8.53
2019-05-26T23:20:14.704Z,6.90
2019-05-26T23:22:43.156Z,7.92
2019-05-26T23:25:11.987Z,7.03
2019-05-26T23:27:40.554Z,6.47
2019-05-26T23:30:10.445Z,6.75
2019-05-26T23:32:38.910Z,6.97
2019-05-26T23:35:08.008Z,6.28
2019-05-26T23:37:36.833Z,6.10
2019-05-26T23:40:08.762Z,5.62
2019-05-26T23:42:37.260Z,4.75
2019-05-26T23:45:07.596Z,5.53
2019-05-26T23:47:36.045Z,4.85
2019-05-26T23:50:07.060Z,5.53
2019-05-26T23:52:35.524Z,4.90
2019-05-26T23:55:06.191Z,4.28
2019-05-26T23:57:34.685Z,4.65
